sensor_id;sensor_type;location;lat;lon;timestamp;pressure;altitude;pressure_sealevel;temperature;humidity
64521;BME280;50896;46.714;17.322;2023-05-15T00:00:36;99778.44;;;11.99;100.00
64521;BME280;50896;46.714;17.322;2023-05-15T00:03:05;99758.97;;;11.99;100.00
64521;BME280;50896;46.714;17.322;2023-05-15T00:05:31;99753.47;;;12.00;100.00
64521;BME280;50896;46.714;17.322;2023-05-15T00:07:58;99757.34;;;11.98;100.00
64521;BME280;50896;46.714;17.322;2023-05-15T00:10:25;99768.00;;;11.98;100.00
64521;BME280;50896;46.714;17.322;2023-05-15T00:12:52;99775.97;;;11.98;100.00
64521;BME280;50896;46.714;17.322;2023-05-15T00:15:19;99787.81;;;11.95;100.00
64521;BME280;50896;46.714;17.322;2023-05-15T00:17:46;99777.06;;;11.88;100.00
64521;BME280;50896;46.714;17.322;2023-05-15T00:20:13;99770.06;;;11.87;100.00
64521;BME280;50896;46.714;17.322;2023-05-15T00:22:40;99785.97;;;11.95;100.00
64521;BME280;50896;46.714;17.322;2023-05-15T00:25:07;99783.31;;;11.95;100.00
64521;BME280;50896;46.714;17.322;2023-05-15T00:27:33;99781.81;;;11.93;100.00
64521;BME280;50896;46.714;17.322;2023-05-15T00:30:02;99784.97;;;11.96;100.00
64521;BME280;50896;46.714;17.322;2023-05-15T00:32:29;99788.63;;;11.95;100.00
64521;BME280;50896;46.714;17.322;2023-05-15T00:34:56;99788.19;;;11.92;100.00
64521;BME280;50896;46.714;17.322;2023-05-15T00:37:23;99801.16;;;11.95;100.00
64521;BME280;50896;46.714;17.322;2023-05-15T00:39:49;99787.34;;;11.91;100.00
64521;BME280;50896;46.714;17.322;2023-05-15T00:42:17;99784.47;;;11.93;100.00
64521;BME280;50896;46.714;17.322;2023-05-15T00:44:44;99772.53;;;11.89;100.00
64521;BME280;50896;46.714;17.322;2023-05-15T00:47:13;99775.66;;;11.92;100.00
64521;BME280;50896;46.714;17.322;2023-05-15T00:49:41;99794.31;;;11.92;100.00
64521;BME280;50896;46.714;17.322;2023-05-15T00:52:08;99785.69;;;11.90;100.00
64521;BME280;50896;46.714;17.322;2023-05-15T00:54:35;99793.03;;;11.88;100.00
64521;BME280;50896;46.714;17.322;2023-05-15T00:57:04;99785.22;;;11.87;100.00
64521;BME280;50896;46.714;17.322;2023-05-15T00:59:32;99779.09;;;11.86;100.00
64521;BME280;50896;46.714;17.322;2023-05-15T01:01:59;99774.78;;;11.85;100.00
64521;BME280;50896;46.714;17.322;2023-05-15T01:04:26;99780.66;;;11.80;100.00
64521;BME280;50896;46.714;17.322;2023-05-15T01:06:53;99779.56;;;11.75;100.00
64521;BME280;50896;46.714;17.322;2023-05-15T01:09:23;99767.78;;;11.69;100.00
64521;BME280;50896;46.714;17.322;2023-05-15T01:11:53;99783.47;;;11.79;100.00
64521;BME280;50896;46.714;17.322;2023-05-15T01:14:20;99785.16;;;11.80;100.00
64521;BME280;50896;46.714;17.322;2023-05-15T01:16:47;99781.66;;;11.79;100.00
64521;BME280;50896;46.714;17.322;2023-05-15T01:19:14;99785.16;;;11.80;100.00
64521;BME280;50896;46.714;17.322;2023-05-15T01:22:03;99775.50;;;11.79;100.00
64521;BME280;50896;46.714;17.322;2023-05-15T01:27:35;99766.88;;;11.77;100.00
64521;BME280;50896;46.714;17.322;2023-05-15T01:30:17;99752.66;;;11.70;100.00
64521;BME280;50896;46.714;17.322;2023-05-15T01:35:32;99742.63;;;11.72;100.00
64521;BME280;50896;46.714;17.322;2023-05-15T01:38:23;99739.72;;;11.67;100.00
64521;BME280;50896;46.714;17.322;2023-05-15T01:41:00;99759.09;;;11.75;100.00
64521;BME280;50896;46.714;17.322;2023-05-15T01:43:30;99761.94;;;11.74;100.00
64521;BME280;50896;46.714;17.322;2023-05-15T01:46:00;99753.09;;;11.73;100.00
64521;BME280;50896;46.714;17.322;2023-05-15T01:48:28;99755.13;;;11.71;100.00
64521;BME280;50896;46.714;17.322;2023-05-15T01:51:00;99761.09;;;11.73;100.00
64521;BME280;50896;46.714;17.322;2023-05-15T01:53:31;99761.28;;;11.72;100.00
64521;BME280;50896;46.714;17.322;2023-05-15T01:55:58;99751.81;;;11.69;100.00
64521;BME280;50896;46.714;17.322;2023-05-15T01:58:26;99757.53;;;11.66;100.00
64521;BME280;50896;46.714;17.322;2023-05-15T02:00:54;99750.00;;;11.70;100.00
64521;BME280;50896;46.714;17.322;2023-05-15T02:03:21;99743.66;;;11.71;100.00
64521;BME280;50896;46.714;17.322;2023-05-15T02:05:49;99734.03;;;11.70;100.00
64521;BME280;50896;46.714;17.322;2023-05-15T02:08:19;99731.56;;;11.68;100.00
64521;BME280;50896;46.714;17.322;2023-05-15T02:10:48;99731.38;;;11.70;100.00
64521;BME280;50896;46.714;17.322;2023-05-15T02:13:18;99730.28;;;11.64;100.00
64521;BME280;50896;46.714;17.322;2023-05-15T02:15:46;99729.69;;;11.69;100.00
64521;BME280;50896;46.714;17.322;2023-05-15T02:18:13;99715.38;;;11.70;100.00
64521;BME280;50896;46.714;17.322;2023-05-15T02:20:39;99708.78;;;11.66;100.00
64521;BME280;50896;46.714;17.322;2023-05-15T02:23:06;99706.75;;;11.68;100.00
64521;BME280;50896;46.714;17.322;2023-05-15T02:25:49;99701.59;;;11.66;100.00
64521;BME280;50896;46.714;17.322;2023-05-15T02:28:29;99693.63;;;11.66;100.00
64521;BME280;50896;46.714;17.322;2023-05-15T02:31:04;99690.78;;;11.68;100.00
64521;BME280;50896;46.714;17.322;2023-05-15T02:33:44;99700.41;;;11.69;100.00
64521;BME280;50896;46.714;17.322;2023-05-15T02:36:17;99711.88;;;11.69;100.00
64521;BME280;50896;46.714;17.322;2023-05-15T02:38:52;99712.06;;;11.68;100.00
64521;BME280;50896;46.714;17.322;2023-05-15T02:41:21;99710.06;;;11.70;100.00
64521;BME280;50896;46.714;17.322;2023-05-15T02:43:50;99713.72;;;11.69;100.00
64521;BME280;50896;46.714;17.322;2023-05-15T02:46:18;99719.72;;;11.71;100.00
64521;BME280;50896;46.714;17.322;2023-05-15T02:48:47;99720.53;;;11.71;100.00
64521;BME280;50896;46.714;17.322;2023-05-15T02:51:14;99714.53;;;11.69;100.00
64521;BME280;50896;46.714;17.322;2023-05-15T02:53:41;99719.72;;;11.71;100.00
64521;BME280;50896;46.714;17.322;2023-05-15T02:56:09;99720.53;;;11.71;100.00
64521;BME280;50896;46.714;17.322;2023-05-15T02:58:36;99722.53;;;11.69;100.00
64521;BME280;50896;46.714;17.322;2023-05-15T03:01:04;99733.84;;;11.71;100.00
64521;BME280;50896;46.714;17.322;2023-05-15T03:03:31;99718.66;;;11.72;100.00
64521;BME280;50896;46.714;17.322;2023-05-15T03:05:58;99721.16;;;11.73;100.00
64521;BME280;50896;46.714;17.322;2023-05-15T03:08:28;99720.34;;;11.73;100.00
64521;BME280;50896;46.714;17.322;2023-05-15T03:10:55;99712.06;;;11.68;100.00
64521;BME280;50896;46.714;17.322;2023-05-15T03:13:21;99712.06;;;11.68;100.00
64521;BME280;50896;46.714;17.322;2023-05-15T03:15:48;99721.53;;;11.70;100.00
64521;BME280;50896;46.714;17.322;2023-05-15T03:18:15;99731.78;;;11.73;100.00
64521;BME280;50896;46.714;17.322;2023-05-15T03:20:46;99716.00;;;11.72;100.00
64521;BME280;50896;46.714;17.322;2023-05-15T03:23:14;99717.09;;;11.77;100.00
64521;BME280;50896;46.714;17.322;2023-05-15T03:25:41;99721.22;;;11.80;100.00
64521;BME280;50896;46.714;17.322;2023-05-15T03:28:07;99728.22;;;11.81;100.00
64521;BME280;50896;46.714;17.322;2023-05-15T03:30:34;99713.44;;;11.78;100.00
64521;BME280;50896;46.714;17.322;2023-05-15T03:33:01;99705.00;;;11.75;100.00
64521;BME280;50896;46.714;17.322;2023-05-15T03:35:30;99719.03;;;11.84;100.00
64521;BME280;50896;46.714;17.322;2023-05-15T03:37:58;99717.66;;;11.88;100.00
64521;BME280;50896;46.714;17.322;2023-05-15T03:40:25;99709.19;;;11.84;100.00
64521;BME280;50896;46.714;17.322;2023-05-15T03:42:51;99715.78;;;11.88;100.00
64521;BME280;50896;46.714;17.322;2023-05-15T03:45:19;99714.72;;;11.83;100.00
64521;BME280;50896;46.714;17.322;2023-05-15T03:47:47;99717.00;;;11.86;100.00
64521;BME280;50896;46.714;17.322;2023-05-15T03:50:14;99718.66;;;11.87;100.00
64521;BME280;50896;46.714;17.322;2023-05-15T03:52:41;99714.31;;;11.86;100.00
64521;BME280;50896;46.714;17.322;2023-05-15T03:55:08;99712.75;;;11.91;100.00
64521;BME280;50896;46.714;17.322;2023-05-15T03:57:35;99711.13;;;11.90;100.00
64521;BME280;50896;46.714;17.322;2023-05-15T04:00:02;99715.91;;;11.95;100.00
64521;BME280;50896;46.714;17.322;2023-05-15T04:02:38;99725.56;;;11.96;100.00
64521;BME280;50896;46.714;17.322;2023-05-15T04:05:07;99721.13;;;11.88;100.00
64521;BME280;50896;46.714;17.322;2023-05-15T04:07:35;99730.38;;;11.92;100.00
64521;BME280;50896;46.714;17.322;2023-05-15T04:10:02;99736.72;;;11.91;100.00
64521;BME280;50896;46.714;17.322;2023-05-15T04:12:33;99730.38;;;11.92;100.00
64521;BME280;50896;46.714;17.322;2023-05-15T04:15:18;99727.09;;;11.90;100.00
64521;BME280;50896;46.714;17.322;2023-05-15T04:17:49;99729.38;;;11.93;100.00
64521;BME280;50896;46.714;17.322;2023-05-15T04:20:19;99732.06;;;11.93;100.00
64521;BME280;50896;46.714;17.322;2023-05-15T04:22:46;99736.28;;;11.88;100.00
64521;BME280;50896;46.714;17.322;2023-05-15T04:25:14;99730.97;;;11.88;100.00
64521;BME280;50896;46.714;17.322;2023-05-15T04:27:42;99724.59;;;11.89;100.00
64521;BME280;50896;46.714;17.322;2023-05-15T04:30:10;99733.75;;;11.94;100.00
64521;BME280;50896;46.714;17.322;2023-05-15T04:32:38;99709.97;;;11.78;100.00
64521;BME280;50896;46.714;17.322;2023-05-15T04:35:06;99724.78;;;11.87;100.00
64521;BME280;50896;46.714;17.322;2023-05-15T04:37:38;99737.75;;;11.90;100.00
64521;BME280;50896;46.714;17.322;2023-05-15T04:40:06;99752.19;;;11.96;100.00
64521;BME280;50896;46.714;17.322;2023-05-15T04:42:35;99759.81;;;11.99;100.00
64521;BME280;50896;46.714;17.322;2023-05-15T04:45:04;99757.75;;;12.01;100.00
64521;BME280;50896;46.714;17.322;2023-05-15T04:47:31;99759.63;;;12.01;100.00
64521;BME280;50896;46.714;17.322;2023-05-15T04:49:58;99758.41;;;12.03;100.00
64521;BME280;50896;46.714;17.322;2023-05-15T04:52:24;99753.72;;;12.05;100.00
64521;BME280;50896;46.714;17.322;2023-05-15T04:54:51;99756.19;;;12.07;100.00
64521;BME280;50896;46.714;17.322;2023-05-15T04:57:20;99760.59;;;12.14;100.00
64521;BME280;50896;46.714;17.322;2023-05-15T04:59:47;99772.31;;;12.20;100.00
64521;BME280;50896;46.714;17.322;2023-05-15T05:02:14;99775.88;;;12.27;100.00
64521;BME280;50896;46.714;17.322;2023-05-15T05:04:41;99777.16;;;12.31;100.00
64521;BME280;50896;46.714;17.322;2023-05-15T05:07:09;99782.31;;;12.33;100.00
64521;BME280;50896;46.714;17.322;2023-05-15T05:09:38;99763.41;;;12.28;100.00
64521;BME280;50896;46.714;17.322;2023-05-15T05:12:06;99782.09;;;12.35;100.00
64521;BME280;50896;46.714;17.322;2023-05-15T05:14:33;99776.78;;;12.35;100.00
64521;BME280;50896;46.714;17.322;2023-05-15T05:17:00;99780.09;;;12.37;100.00
64521;BME280;50896;46.714;17.322;2023-05-15T05:19:28;99783.75;;;12.36;100.00
64521;BME280;50896;46.714;17.322;2023-05-15T05:21:54;99772.84;;;12.30;100.00
64521;BME280;50896;46.714;17.322;2023-05-15T05:24:24;99783.38;;;12.39;100.00
64521;BME280;50896;46.714;17.322;2023-05-15T05:26:50;99775.38;;;12.39;100.00
64521;BME280;50896;46.714;17.322;2023-05-15T05:29:17;99771.13;;;12.44;100.00
64521;BME280;50896;46.714;17.322;2023-05-15T05:31:45;99764.22;;;12.50;100.00
64521;BME280;50896;46.714;17.322;2023-05-15T05:34:12;99772.28;;;12.57;100.00
64521;BME280;50896;46.714;17.322;2023-05-15T05:36:39;99773.53;;;12.61;100.00
64521;BME280;50896;46.714;17.322;2023-05-15T05:39:06;99775.00;;;12.63;100.00
64521;BME280;50896;46.714;17.322;2023-05-15T05:41:33;99767.41;;;12.60;100.00
64521;BME280;50896;46.714;17.322;2023-05-15T05:44:00;99770.88;;;12.61;100.00
64521;BME280;50896;46.714;17.322;2023-05-15T05:46:27;99761.81;;;12.55;100.00
64521;BME280;50896;46.714;17.322;2023-05-15T05:48:54;99766.19;;;12.63;100.00
64521;BME280;50896;46.714;17.322;2023-05-15T05:51:21;99763.13;;;12.66;100.00
64521;BME280;50896;46.714;17.322;2023-05-15T05:53:48;99764.59;;;12.69;100.00
64521;BME280;50896;46.714;17.322;2023-05-15T05:56:15;99771.81;;;12.75;100.00
64521;BME280;50896;46.714;17.322;2023-05-15T05:58:45;99765.28;;;12.77;100.00
64521;BME280;50896;46.714;17.322;2023-05-15T06:01:12;99765.91;;;12.79;100.00
64521;BME280;50896;46.714;17.322;2023-05-15T06:03:41;99762.81;;;12.76;100.00
64521;BME280;50896;46.714;17.322;2023-05-15T06:06:10;99768.22;;;12.82;100.00
64521;BME280;50896;46.714;17.322;2023-05-15T06:08:37;99763.69;;;12.83;100.00
64521;BME280;50896;46.714;17.322;2023-05-15T06:11:03;99763.94;;;12.88;100.00
64521;BME280;50896;46.714;17.322;2023-05-15T06:13:30;99765.81;;;12.94;100.00
64521;BME280;50896;46.714;17.322;2023-05-15T06:15:57;99754.56;;;12.99;100.00
64521;BME280;50896;46.714;17.322;2023-05-15T06:18:24;99742.25;;;12.98;100.00
64521;BME280;50896;46.714;17.322;2023-05-15T06:20:51;99758.41;;;13.18;100.00
64521;BME280;50896;46.714;17.322;2023-05-15T06:23:19;99769.53;;;13.22;100.00
64521;BME280;50896;46.714;17.322;2023-05-15T06:25:48;99767.66;;;13.22;100.00
64521;BME280;50896;46.714;17.322;2023-05-15T06:28:15;99773.31;;;13.34;100.00
64521;BME280;50896;46.714;17.322;2023-05-15T06:30:42;99771.31;;;13.43;100.00
64521;BME280;50896;46.714;17.322;2023-05-15T06:33:08;99767.66;;;13.50;100.00
64521;BME280;50896;46.714;17.322;2023-05-15T06:35:36;99776.56;;;13.58;100.00
64521;BME280;50896;46.714;17.322;2023-05-15T06:38:02;99775.50;;;13.59;100.00
64521;BME280;50896;46.714;17.322;2023-05-15T06:40:30;99785.63;;;13.63;100.00
64521;BME280;50896;46.714;17.322;2023-05-15T06:42:56;99789.91;;;13.64;100.00
64521;BME280;50896;46.714;17.322;2023-05-15T06:45:24;99784.78;;;13.63;100.00
64521;BME280;50896;46.714;17.322;2023-05-15T06:47:51;99784.56;;;13.64;100.00
64521;BME280;50896;46.714;17.322;2023-05-15T06:50:18;99785.41;;;13.65;100.00
64521;BME280;50896;46.714;17.322;2023-05-15T06:52:45;99786.78;;;13.54;100.00
64521;BME280;50896;46.714;17.322;2023-05-15T06:55:13;99798.84;;;13.43;100.00
64521;BME280;50896;46.714;17.322;2023-05-15T06:57:40;99803.03;;;13.31;100.00
64521;BME280;50896;46.714;17.322;2023-05-15T07:00:07;99819.97;;;13.38;100.00
64521;BME280;50896;46.714;17.322;2023-05-15T07:02:34;99817.72;;;13.42;100.00
64521;BME280;50896;46.714;17.322;2023-05-15T07:05:01;99809.31;;;13.38;100.00
64521;BME280;50896;46.714;17.322;2023-05-15T07:07:28;99814.25;;;13.41;100.00
64521;BME280;50896;46.714;17.322;2023-05-15T07:09:55;99808.81;;;13.34;100.00
64521;BME280;50896;46.714;17.322;2023-05-15T07:12:22;99810.50;;;13.36;100.00
64521;BME280;50896;46.714;17.322;2023-05-15T07:14:49;99810.50;;;13.36;100.00
64521;BME280;50896;46.714;17.322;2023-05-15T07:17:16;99815.16;;;13.33;100.00
64521;BME280;50896;46.714;17.322;2023-05-15T07:19:43;99814.56;;;13.31;100.00
64521;BME280;50896;46.714;17.322;2023-05-15T07:22:10;99807.31;;;13.25;100.00
64521;BME280;50896;46.714;17.322;2023-05-15T07:24:37;99803.81;;;13.25;100.00
64521;BME280;50896;46.714;17.322;2023-05-15T07:27:06;99805.28;;;13.27;100.00
64521;BME280;50896;46.714;17.322;2023-05-15T07:29:32;99802.63;;;13.27;100.00
64521;BME280;50896;46.714;17.322;2023-05-15T07:31:59;99808.78;;;13.28;100.00
64521;BME280;50896;46.714;17.322;2023-05-15T07:34:26;99802.63;;;13.27;100.00
64521;BME280;50896;46.714;17.322;2023-05-15T07:36:53;99802.22;;;13.30;100.00
64521;BME280;50896;46.714;17.322;2023-05-15T07:39:20;99818.38;;;13.44;100.00
64521;BME280;50896;46.714;17.322;2023-05-15T07:41:47;99827.25;;;13.51;100.00
64521;BME280;50896;46.714;17.322;2023-05-15T07:44:14;99831.38;;;13.60;100.00
64521;BME280;50896;46.714;17.322;2023-05-15T07:46:41;99820.59;;;13.75;100.00
64521;BME280;50896;46.714;17.322;2023-05-15T07:49:08;99821.25;;;13.84;100.00
64521;BME280;50896;46.714;17.322;2023-05-15T07:51:35;99819.41;;;13.84;100.00
64521;BME280;50896;46.714;17.322;2023-05-15T07:54:02;99818.66;;;13.97;100.00
64521;BME280;50896;46.714;17.322;2023-05-15T07:56:29;99829.56;;;14.09;100.00
64521;BME280;50896;46.714;17.322;2023-05-15T07:58:56;99830.66;;;14.15;100.00
64521;BME280;50896;46.714;17.322;2023-05-15T08:01:23;99822.00;;;14.13;100.00
64521;BME280;50896;46.714;17.322;2023-05-15T08:03:50;99822.25;;;14.25;100.00
64521;BME280;50896;46.714;17.322;2023-05-15T08:06:17;99821.41;;;14.24;100.00
64521;BME280;50896;46.714;17.322;2023-05-15T08:08:44;99812.97;;;14.27;100.00
64521;BME280;50896;46.714;17.322;2023-05-15T08:11:10;99822.69;;;14.35;100.00
64521;BME280;50896;46.714;17.322;2023-05-15T08:13:43;99808.50;;;14.41;100.00
64521;BME280;50896;46.714;17.322;2023-05-15T08:16:18;99812.22;;;14.40;100.00
64521;BME280;50896;46.714;17.322;2023-05-15T08:18:45;99820.88;;;14.49;100.00
64521;BME280;50896;46.714;17.322;2023-05-15T08:21:12;99811.63;;;14.51;100.00
64521;BME280;50896;46.714;17.322;2023-05-15T08:23:39;99806.88;;;14.40;100.00
64521;BME280;50896;46.714;17.322;2023-05-15T08:26:06;99807.91;;;14.59;100.00
64521;BME280;50896;46.714;17.322;2023-05-15T08:28:33;99811.00;;;14.56;100.00
64521;BME280;50896;46.714;17.322;2023-05-15T08:30:59;99814.97;;;14.67;100.00
64521;BME280;50896;46.714;17.322;2023-05-15T08:33:26;99803.22;;;14.75;100.00
64521;BME280;50896;46.714;17.322;2023-05-15T08:35:53;99822.59;;;14.77;100.00
64521;BME280;50896;46.714;17.322;2023-05-15T08:38:20;99816.81;;;14.73;100.00
64521;BME280;50896;46.714;17.322;2023-05-15T08:40:49;99818.88;;;14.64;100.00
64521;BME280;50896;46.714;17.322;2023-05-15T08:43:16;99833.50;;;14.68;100.00
64521;BME280;50896;46.714;17.322;2023-05-15T08:45:43;99833.59;;;14.33;100.00
64521;BME280;50896;46.714;17.322;2023-05-15T08:48:13;99824.53;;;14.41;100.00
64521;BME280;50896;46.714;17.322;2023-05-15T08:50:42;99834.50;;;14.67;100.00
64521;BME280;50896;46.714;17.322;2023-05-15T08:53:11;99837.00;;;14.76;100.00
64521;BME280;50896;46.714;17.322;2023-05-15T08:55:39;99828.56;;;14.85;100.00
64521;BME280;50896;46.714;17.322;2023-05-15T08:58:07;99841.31;;;14.90;100.00
64521;BME280;50896;46.714;17.322;2023-05-15T09:00:35;99848.13;;;14.99;100.00
64521;BME280;50896;46.714;17.322;2023-05-15T09:03:03;99832.72;;;15.01;100.00
64521;BME280;50896;46.714;17.322;2023-05-15T09:05:30;99834.75;;;15.13;100.00
64521;BME280;50896;46.714;17.322;2023-05-15T09:07:59;99842.78;;;15.33;100.00
64521;BME280;50896;46.714;17.322;2023-05-15T09:10:30;99828.31;;;15.54;100.00
64521;BME280;50896;46.714;17.322;2023-05-15T09:12:58;99829.97;;;15.68;100.00
64521;BME280;50896;46.714;17.322;2023-05-15T09:15:27;99836.94;;;15.76;100.00
64521;BME280;50896;46.714;17.322;2023-05-15T09:17:55;99824.41;;;15.63;100.00
64521;BME280;50896;46.714;17.322;2023-05-15T09:20:32;99836.13;;;15.76;100.00
64521;BME280;50896;46.714;17.322;2023-05-15T09:23:01;99846.84;;;15.62;100.00
64521;BME280;50896;46.714;17.322;2023-05-15T09:25:38;99836.41;;;15.34;100.00
64521;BME280;50896;46.714;17.322;2023-05-15T09:28:07;99836.41;;;15.20;100.00
64521;BME280;50896;46.714;17.322;2023-05-15T09:30:37;99847.50;;;15.04;100.00
64521;BME280;50896;46.714;17.322;2023-05-15T09:33:04;99849.38;;;15.03;100.00
64521;BME280;50896;46.714;17.322;2023-05-15T09:35:36;99849.16;;;15.05;100.00
64521;BME280;50896;46.714;17.322;2023-05-15T09:38:12;99850.84;;;15.13;100.00
64521;BME280;50896;46.714;17.322;2023-05-15T09:40:39;99842.38;;;15.09;100.00
64521;BME280;50896;46.714;17.322;2023-05-15T09:43:09;99837.84;;;15.10;100.00
64521;BME280;50896;46.714;17.322;2023-05-15T09:45:36;99846.50;;;15.12;100.00
64521;BME280;50896;46.714;17.322;2023-05-15T09:48:04;99842.97;;;15.18;100.00
64521;BME280;50896;46.714;17.322;2023-05-15T09:50:34;99838.22;;;15.33;100.00
64521;BME280;50896;46.714;17.322;2023-05-15T09:53:01;99842.75;;;15.53;100.00
64521;BME280;50896;46.714;17.322;2023-05-15T09:55:31;99843.09;;;15.77;100.00
64521;BME280;50896;46.714;17.322;2023-05-15T09:58:09;99843.13;;;15.83;100.00
64521;BME280;50896;46.714;17.322;2023-05-15T10:00:38;99853.41;;;15.86;100.00
64521;BME280;50896;46.714;17.322;2023-05-15T10:03:17;99844.56;;;15.79;100.00
64521;BME280;50896;46.714;17.322;2023-05-15T10:05:45;99839.84;;;15.68;100.00
64521;BME280;50896;46.714;17.322;2023-05-15T10:08:12;99835.13;;;15.63;100.00
64521;BME280;50896;46.714;17.322;2023-05-15T10:10:40;99840.69;;;15.68;100.00
64521;BME280;50896;46.714;17.322;2023-05-15T10:13:08;99842.72;;;15.66;100.00
64521;BME280;50896;46.714;17.322;2023-05-15T10:15:36;99846.00;;;15.75;100.00
64521;BME280;50896;46.714;17.322;2023-05-15T10:18:05;99854.28;;;15.80;100.00
64521;BME280;50896;46.714;17.322;2023-05-15T10:20:33;99849.53;;;15.76;100.00
64521;BME280;50896;46.714;17.322;2023-05-15T10:23:04;99845.84;;;15.63;100.00
64521;BME280;50896;46.714;17.322;2023-05-15T10:28:01;99850.16;;;15.64;100.00
64521;BME280;50896;46.714;17.322;2023-05-15T10:30:30;99841.31;;;15.50;100.00
64521;BME280;50896;46.714;17.322;2023-05-15T10:32:57;99846.06;;;15.48;100.00
64521;BME280;50896;46.714;17.322;2023-05-15T10:35:25;99842.34;;;15.29;100.00
64521;BME280;50896;46.714;17.322;2023-05-15T10:37:52;99840.53;;;15.30;100.00
64521;BME280;50896;46.714;17.322;2023-05-15T10:40:20;99843.41;;;15.28;100.00
64521;BME280;50896;46.714;17.322;2023-05-15T10:42:47;99836.59;;;15.26;100.00
64521;BME280;50896;46.714;17.322;2023-05-15T10:45:15;99842.78;;;15.19;100.00
64521;BME280;50896;46.714;17.322;2023-05-15T10:47:42;99824.25;;;15.18;100.00
64521;BME280;50896;46.714;17.322;2023-05-15T10:50:11;99834.34;;;15.23;100.00
64521;BME280;50896;46.714;17.322;2023-05-15T10:52:39;99826.09;;;15.31;100.00
64521;BME280;50896;46.714;17.322;2023-05-15T10:55:15;99826.91;;;15.38;100.00
64521;BME280;50896;46.714;17.322;2023-05-15T10:57:44;99817.81;;;15.46;100.00
64521;BME280;50896;46.714;17.322;2023-05-15T11:00:25;99825.78;;;15.72;100.00
64521;BME280;50896;46.714;17.322;2023-05-15T11:02:53;99820.22;;;15.94;100.00
64521;BME280;50896;46.714;17.322;2023-05-15T11:05:23;99810.00;;;16.16;100.00
64521;BME280;50896;46.714;17.322;2023-05-15T11:08:23;99817.63;;;16.58;100.00
64521;BME280;50896;46.714;17.322;2023-05-15T11:10:51;99810.16;;;16.60;100.00
64521;BME280;50896;46.714;17.322;2023-05-15T11:13:19;99806.41;;;16.68;100.00
64521;BME280;50896;46.714;17.322;2023-05-15T11:15:47;99806.63;;;16.66;100.00
64521;BME280;50896;46.714;17.322;2023-05-15T11:18:14;99819.56;;;16.76;100.00
64521;BME280;50896;46.714;17.322;2023-05-15T11:23:37;99822.16;;;16.57;100.00
64521;BME280;50896;46.714;17.322;2023-05-15T11:26:04;99817.47;;;16.46;100.00
64521;BME280;50896;46.714;17.322;2023-05-15T11:28:40;99817.38;;;16.28;100.00
64521;BME280;50896;46.714;17.322;2023-05-15T11:31:07;99827.75;;;16.17;100.00
64521;BME280;50896;46.714;17.322;2023-05-15T11:33:37;99826.56;;;16.00;100.00
64521;BME280;50896;46.714;17.322;2023-05-15T11:36:04;99835.66;;;15.99;100.00
64521;BME280;50896;46.714;17.322;2023-05-15T11:38:37;99832.16;;;15.98;100.00
64521;BME280;50896;46.714;17.322;2023-05-15T11:41:16;99825.75;;;15.99;100.00
64521;BME280;50896;46.714;17.322;2023-05-15T11:43:44;99829.84;;;16.09;100.00
64521;BME280;50896;46.714;17.322;2023-05-15T11:46:12;99827.22;;;16.40;100.00
64521;BME280;50896;46.714;17.322;2023-05-15T11:48:44;99827.13;;;16.54;100.00
64521;BME280;50896;46.714;17.322;2023-05-15T11:51:18;99812.06;;;16.85;100.00
64521;BME280;50896;46.714;17.322;2023-05-15T11:53:46;99814.13;;;16.83;100.00
64521;BME280;50896;46.714;17.322;2023-05-15T11:56:18;99827.72;;;16.88;100.00
64521;BME280;50896;46.714;17.322;2023-05-15T11:58:53;99825.50;;;16.85;100.00
64521;BME280;50896;46.714;17.322;2023-05-15T12:01:21;99811.28;;;16.78;100.00
64521;BME280;50896;46.714;17.322;2023-05-15T12:03:48;99810.94;;;16.67;100.00
64521;BME280;50896;46.714;17.322;2023-05-15T12:06:17;99810.69;;;16.75;100.00
64521;BME280;50896;46.714;17.322;2023-05-15T12:08:49;99802.13;;;16.92;100.00
64521;BME280;50896;46.714;17.322;2023-05-15T12:11:21;99805.97;;;17.03;100.00
64521;BME280;50896;46.714;17.322;2023-05-15T12:13:50;99810.53;;;17.02;100.00
64521;BME280;50896;46.714;17.322;2023-05-15T12:16:23;99801.59;;;17.27;100.00
64521;BME280;50896;46.714;17.322;2023-05-15T12:18:50;99809.09;;;17.43;100.00
64521;BME280;50896;46.714;17.322;2023-05-15T12:21:18;99808.75;;;17.58;100.00
64521;BME280;50896;46.714;17.322;2023-05-15T12:23:51;99804.88;;;17.54;100.00
64521;BME280;50896;46.714;17.322;2023-05-15T12:26:33;99790.97;;;17.39;100.00
64521;BME280;50896;46.714;17.322;2023-05-15T12:29:00;99797.53;;;17.62;100.00
64521;BME280;50896;46.714;17.322;2023-05-15T12:31:27;99796.88;;;18.03;100.00
64521;BME280;50896;46.714;17.322;2023-05-15T12:33:55;99789.31;;;18.42;100.00
64521;BME280;50896;46.714;17.322;2023-05-15T12:36:22;99784.78;;;19.21;100.00
64521;BME280;50896;46.714;17.322;2023-05-15T12:38:49;99778.81;;;19.95;100.00
64521;BME280;50896;46.714;17.322;2023-05-15T12:41:16;99778.44;;;20.95;100.00
64521;BME280;50896;46.714;17.322;2023-05-15T12:43:45;99771.16;;;22.45;100.00
64521;BME280;50896;46.714;17.322;2023-05-15T12:46:12;99756.94;;;22.93;100.00
64521;BME280;50896;46.714;17.322;2023-05-15T12:48:40;99753.53;;;22.75;100.00
64521;BME280;50896;46.714;17.322;2023-05-15T12:51:07;99754.16;;;22.00;100.00
64521;BME280;50896;46.714;17.322;2023-05-15T12:53:34;99765.59;;;20.68;100.00
64521;BME280;50896;46.714;17.322;2023-05-15T12:56:02;99763.47;;;19.95;100.00
64521;BME280;50896;46.714;17.322;2023-05-15T12:58:30;99764.28;;;19.32;100.00